Copano Village, Texas
Current Conditions -  °F | °C
As of 1:53 AM on Friday 28 Nov 2014 (Local Time) from KRKP Reporting Station
Clear Clear  
Wind Chill: 58°   Ceiling: Unl
Heat Index: 58°   Visibility: 10mi
Dew Point: 55°   Wind: 6mph
Humidity: 90%   Direction: 90°E
Pressure: 30.34"   Gusts: NA
Location:  28.2335°N, 96.9422°W
Report Text: KRKP 280753Z AUTO 09005KT 10SM CLR 14/13 A3034 RMK AO2 SLP274 T01440128
Loading
Personal Weather Stations






























Interactive Weather Map New forecast layout! Learn more

10-Day Weather Forecast

Advertisements
Track Severe Weather on mobile